Time;durP1;ratioP1;P1;durP2;ratioP2;P2;SDS_P1;SDS_P2;PMS_P1;PMS_P2;Temp;Humidity;BMP_temperature;BMP_pressure;BME280_temperature;BME280_humidity;BME280_pressure;Samples;Min_cycle;Max_cycle;Signal;HPM_P1;HPM_P2
2023/09/25 00:00:41;;;;;;;13.02;3.72;;;;;;;21.67;58.96;93990.09;5067451;28;20044;-80
2023/09/25 00:03:07;;;;;;;18.73;4.40;;;;;;;21.64;59.06;93993.59;5085236;28;20259;-80
2023/09/25 00:05:33;;;;;;;16.67;3.88;;;;;;;21.65;59.04;93987.00;5085258;28;20025;-80
2023/09/25 00:07:58;;;;;;;16.63;3.55;;;;;;;21.64;58.40;93985.47;5085281;28;20044;-80
2023/09/25 00:10:24;;;;;;;17.40;3.90;;;;;;;21.62;58.48;93993.97;5085041;28;20219;-80
2023/09/25 00:12:50;;;;;;;20.23;3.50;;;;;;;21.62;58.48;93987.78;5085133;28;20062;-80
2023/09/25 00:15:15;;;;;;;9.20;3.33;;;;;;;21.61;58.22;93986.22;5085229;28;20227;-80
2023/09/25 00:17:43;;;;;;;18.40;3.85;;;;;;;21.55;57.89;93993.91;5084543;28;20215;-81
2023/09/25 00:20:14;;;;;;;9.60;3.92;;;;;;;21.55;58.61;93993.16;5066624;28;20024;-80
2023/09/25 00:22:40;;;;;;;11.77;4.10;;;;;;;21.53;58.81;93990.03;5085160;28;20051;-80
2023/09/25 00:25:07;;;;;;;16.55;4.47;;;;;;;21.51;58.75;93997.78;5084926;28;20031;-80
2023/09/25 00:27:32;;;;;;;17.50;3.40;;;;;;;21.47;58.42;94000.47;5084700;28;20123;-80
2023/09/25 00:29:58;;;;;;;9.60;3.88;;;;;;;21.43;58.04;93992.31;5084894;28;20055;-80
2023/09/25 00:32:24;;;;;;;13.52;3.42;;;;;;;21.41;58.58;93994.59;5084897;28;20404;-80
2023/09/25 00:34:49;;;;;;;20.75;3.83;;;;;;;21.40;58.80;93989.56;5084776;28;20067;-80
2023/09/25 00:37:15;;;;;;;21.90;4.93;;;;;;;21.43;58.86;93988.81;5084732;28;20032;-80
2023/09/25 00:39:42;;;;;;;9.38;3.28;;;;;;;21.38;58.96;93981.78;5084801;28;20020;-80
2023/09/25 00:42:08;;;;;;;18.02;4.15;;;;;;;21.35;58.55;93996.13;5066799;28;20033;-80
2023/09/25 00:44:33;;;;;;;20.08;3.47;;;;;;;21.34;58.61;93991.06;5084510;28;20091;-80
2023/09/25 00:46:59;;;;;;;13.68;3.75;;;;;;;21.35;58.73;94001.53;5084436;28;20203;-80
2023/09/25 00:49:26;;;;;;;12.15;3.58;;;;;;;21.33;58.64;93997.63;5084404;28;20088;-80
2023/09/25 00:51:52;;;;;;;13.90;3.70;;;;;;;21.30;59.03;94001.88;5084673;28;20032;-80
2023/09/25 00:54:18;;;;;;;11.20;3.60;;;;;;;21.24;59.38;94001.47;5066611;28;20020;-80
2023/09/25 00:56:46;;;;;;;8.95;3.42;;;;;;;21.29;59.42;94004.97;5084476;28;20020;-80
2023/09/25 00:59:12;;;;;;;13.02;4.90;;;;;;;21.24;59.66;94006.88;5066260;28;20039;-80
2023/09/25 01:01:37;;;;;;;10.82;4.13;;;;;;;21.24;60.07;94006.88;5066495;28;20028;-80
2023/09/25 01:04:03;;;;;;;11.25;3.53;;;;;;;21.21;60.92;94004.16;5084121;28;20016;-80
2023/09/25 01:06:29;;;;;;;10.27;4.18;;;;;;;21.19;60.31;93998.34;5066296;28;20016;-80
2023/09/25 01:08:54;;;;;;;10.50;3.65;;;;;;;21.18;60.00;93999.47;5083990;28;20056;-80
2023/09/25 01:11:19;;;;;;;19.17;3.70;;;;;;;21.13;59.83;94010.69;5084037;28;20027;-80
2023/09/25 01:13:45;;;;;;;11.82;3.72;;;;;;;21.12;59.97;94009.13;5083838;28;20094;-80
2023/09/25 01:16:10;;;;;;;15.48;3.90;;;;;;;21.10;59.58;94008.72;5084100;28;20027;-80
2023/09/25 01:18:36;;;;;;;16.13;3.75;;;;;;;21.04;59.33;94000.94;5083569;28;20268;-80
2023/09/25 01:21:03;;;;;;;15.43;3.30;;;;;;;21.05;59.05;94004.44;5083772;28;20327;-80
2023/09/25 01:23:28;;;;;;;12.07;3.22;;;;;;;21.06;59.11;94005.19;5083449;28;20027;-80
2023/09/25 01:25:54;;;;;;;15.35;4.07;;;;;;;21.02;59.09;94010.59;5083493;28;20048;-80
2023/09/25 01:28:19;;;;;;;14.00;3.63;;;;;;;20.99;59.20;94017.53;5083489;28;20245;-80
2023/09/25 01:30:45;;;;;;;11.82;3.25;;;;;;;20.97;58.53;94019.09;5083561;28;20215;-80
2023/09/25 01:33:10;;;;;;;7.78;3.83;;;;;;;20.91;58.82;94012.44;5083700;28;20326;-80
2023/09/25 01:35:35;;;;;;;11.73;4.03;;;;;;;20.91;58.82;94018.63;5083534;28;20039;-80
2023/09/25 01:38:04;;;;;;;13.43;3.60;;;;;;;20.93;58.90;94026.41;5083388;28;20028;-80
2023/09/25 01:40:30;;;;;;;18.27;3.60;;;;;;;20.83;58.50;94025.16;5083564;28;20031;-80
2023/09/25 01:42:56;;;;;;;13.43;3.42;;;;;;;20.83;58.20;94019.75;5083505;28;20191;-80
2023/09/25 01:45:22;;;;;;;14.18;4.13;;;;;;;20.82;58.42;94026.28;5083465;28;20020;-80
2023/09/25 01:47:50;;;;;;;7.25;3.20;;;;;;;20.81;58.45;94027.47;5083256;28;20107;-80
2023/09/25 01:50:24;;;;;;;10.93;3.45;;;;;;;20.76;58.53;94025.06;5083513;28;20028;-80
2023/09/25 01:52:58;;;;;;;8.30;3.67;;;;;;;20.74;58.18;94028.19;5083259;28;20024;-80
2023/09/25 01:55:27;;;;;;;11.40;3.63;;;;;;;20.70;56.26;94024.66;5083176;28;20027;-80
2023/09/25 01:57:53;;;;;;;11.30;4.10;;;;;;;20.71;56.62;94030.84;5083193;28;20020;-80
2023/09/25 02:00:18;;;;;;;9.40;2.55;;;;;;;20.70;57.05;94038.22;5083153;28;20020;-80
2023/09/25 02:02:44;;;;;;;17.55;4.20;;;;;;;20.62;56.63;94036.59;5065348;28;20020;-80
2023/09/25 02:05:10;;;;;;;17.45;4.10;;;;;;;20.64;56.93;94037.00;5083098;28;20046;-80
2023/09/25 02:07:36;;;;;;;9.85;3.13;;;;;;;20.63;56.82;94033.47;5081859;28;20017;-80
2023/09/25 02:10:01;;;;;;;10.25;3.83;;;;;;;20.60;56.89;94045.06;5082866;28;20028;-80
2023/09/25 02:12:27;;;;;;;7.68;3.22;;;;;;;20.55;56.29;94036.47;5083022;28;20098;-80
2023/09/25 02:14:57;;;;;;;20.80;3.35;;;;;;;20.54;55.79;94046.53;5082747;28;20040;-80
2023/09/25 02:17:22;;;;;;;6.47;3.47;;;;;;;20.44;55.32;94033.66;5082789;28;20028;-80
2023/09/25 02:19:47;;;;;;;10.77;2.85;;;;;;;20.45;55.50;94043.31;5083060;28;20083;-80
2023/09/25 02:22:13;;;;;;;11.02;2.80;;;;;;;20.45;55.83;94040.63;5064935;28;20384;-80
2023/09/25 02:24:39;;;;;;;10.60;3.28;;;;;;;20.43;56.64;94051.03;5082847;28;20036;-80
2023/09/25 02:27:05;;;;;;;17.60;3.83;;;;;;;20.40;56.87;94032.84;5081834;28;20282;-80
2023/09/25 02:29:31;;;;;;;8.38;2.92;;;;;;;20.39;56.86;94036.69;5081509;28;20204;-80
2023/09/25 02:31:56;;;;;;;10.60;3.20;;;;;;;20.36;58.21;94032.81;5081055;28;20031;-80
2023/09/25 02:34:22;;;;;;;13.57;2.95;;;;;;;20.34;58.41;94026.22;5082000;28;20028;-80
2023/09/25 02:36:47;;;;;;;11.27;3.00;;;;;;;20.27;58.42;94037.72;5082775;28;20303;-81
2023/09/25 02:39:15;;;;;;;13.20;3.22;;;;;;;20.23;58.14;94042.31;5082629;28;20237;-81
2023/09/25 02:41:41;;;;;;;10.90;3.45;;;;;;;20.21;57.95;94041.91;5085471;28;20024;-80
2023/09/25 02:44:06;;;;;;;8.63;3.20;;;;;;;20.18;57.49;94035.31;5089219;28;20027;-81
2023/09/25 02:46:32;;;;;;;10.00;3.17;;;;;;;20.11;56.69;94045.25;5089359;28;20065;-80
2023/09/25 02:48:57;;;;;;;10.13;3.10;;;;;;;20.10;56.62;94052.63;5089191;28;20032;-80
2023/09/25 02:51:23;;;;;;;8.20;3.55;;;;;;;20.12;57.88;94047.63;5089276;28;20210;-80
2023/09/25 02:53:48;;;;;;;9.85;3.22;;;;;;;20.14;58.77;94060.78;5088064;28;20219;-80
2023/09/25 02:56:14;;;;;;;9.70;3.60;;;;;;;20.08;59.04;94046.03;5089434;28;20017;-80
2023/09/25 02:58:39;;;;;;;9.93;3.15;;;;;;;19.99;59.79;94049.78;5089198;28;20249;-81
2023/09/25 03:01:05;;;;;;;8.75;4.03;;;;;;;19.93;60.99;94050.50;5089205;28;20323;-80
2023/09/25 03:03:30;;;;;;;8.95;3.20;;;;;;;19.84;61.50;94051.53;5089169;28;20073;-80
2023/09/25 03:05:56;;;;;;;14.07;3.72;;;;;;;19.82;62.00;94059.25;5088789;28;20099;-80
2023/09/25 03:08:22;;;;;;;10.15;3.40;;;;;;;19.76;61.10;94054.50;5089016;28;20024;-80
2023/09/25 03:10:47;;;;;;;12.57;3.97;;;;;;;19.68;61.75;94061.69;5089260;28;20211;-80
2023/09/25 03:13:13;;;;;;;12.00;5.05;;;;;;;19.67;61.81;94054.75;5088816;28;20319;-80
2023/09/25 03:15:38;;;;;;;7.28;4.38;;;;;;;19.64;61.54;94058.16;5071177;28;20095;-81
2023/09/25 03:18:04;;;;;;;15.48;4.30;;;;;;;19.62;61.92;94057.75;5088819;28;20017;-80
2023/09/25 03:20:30;;;;;;;6.93;3.80;;;;;;;19.61;62.25;94069.72;5071033;28;20035;-80
2023/09/25 03:22:56;;;;;;;10.75;4.13;;;;;;;19.59;61.08;94066.63;5088955;28;20020;-80
2023/09/25 03:25:24;;;;;;;8.90;3.92;;;;;;;19.59;59.87;94064.69;5088705;28;20017;-80
2023/09/25 03:27:49;;;;;;;7.82;3.90;;;;;;;19.60;60.01;94062.75;5070956;28;20020;-80
2023/09/25 03:30:15;;;;;;;14.95;4.20;;;;;;;19.65;60.25;94065.16;5071114;28;20043;-80
2023/09/25 03:32:42;;;;;;;11.82;4.38;;;;;;;19.68;60.75;94058.22;5088782;28;20381;-80
2023/09/25 03:35:15;;;;;;;8.00;4.15;;;;;;;19.69;60.27;94071.38;5088664;28;20016;-79
2023/09/25 03:37:40;;;;;;;11.50;4.75;;;;;;;19.71;60.10;94074.53;5088838;28;20054;-80
2023/09/25 03:40:07;;;;;;;14.73;5.15;;;;;;;19.70;61.03;94081.06;5088859;28;20057;-80
2023/09/25 03:42:33;;;;;;;18.38;5.40;;;;;;;19.73;61.25;94074.19;5088622;28;20454;-80
2023/09/25 03:44:59;;;;;;;18.02;6.13;;;;;;;19.69;62.23;94087.63;5088801;28;20020;-80
2023/09/25 03:47:24;;;;;;;16.30;7.25;;;;;;;19.65;62.87;94084.09;5088622;28;20066;-80
2023/09/25 03:49:50;;;;;;;18.73;8.77;;;;;;;19.59;63.51;94077.44;5088717;28;20218;-80
2023/09/25 03:52:15;;;;;;;24.33;10.68;;;;;;;19.56;63.94;94083.53;5088354;28;20036;-80
2023/09/25 03:54:40;;;;;;;16.45;9.38;;;;;;;19.51;64.45;94084.66;5085338;28;20096;-80
2023/09/25 03:57:06;;;;;;;17.23;9.95;;;;;;;19.49;65.05;94084.22;5085149;28;20091;-80
2023/09/25 03:59:31;;;;;;;20.23;10.02;;;;;;;19.49;65.35;94078.81;5085368;28;20025;-80
2023/09/25 04:01:57;;;;;;;25.98;11.20;;;;;;;19.45;65.72;94083.41;5085490;28;20028;-80
2023/09/25 04:04:22;;;;;;;24.92;10.27;;;;;;;19.43;66.02;94083.75;5085113;28;20024;-80
2023/09/25 04:06:48;;;;;;;28.35;10.57;;;;;;;19.41;66.43;94077.16;5085224;28;20024;-80
2023/09/25 04:09:13;;;;;;;18.65;11.57;;;;;;;19.40;66.39;94079.09;5085139;28;20042;-80
2023/09/25 04:11:39;;;;;;;26.30;11.85;;;;;;;19.37;66.73;94085.22;5085112;28;20043;-80
2023/09/25 04:14:06;;;;;;;19.85;11.07;;;;;;;19.37;66.85;94079.81;5085039;28;20036;-80
2023/09/25 04:16:33;;;;;;;26.77;12.95;;;;;;;19.39;67.38;94088.34;5084919;28;20023;-80
2023/09/25 04:18:59;;;;;;;19.05;11.45;;;;;;;19.36;67.61;94099.09;5085153;28;20043;-80
2023/09/25 04:21:24;;;;;;;22.42;11.85;;;;;;;19.40;67.33;94099.94;5084978;28;20069;-80
2023/09/25 04:23:49;;;;;;;20.50;12.18;;;;;;;19.37;67.68;94104.13;5085351;28;20038;-80
2023/09/25 04:26:16;;;;;;;22.02;13.48;;;;;;;19.38;68.11;94097.59;5084918;28;20377;-80
2023/09/25 04:28:42;;;;;;;33.00;13.82;;;;;;;19.40;68.25;94105.34;5084662;28;20054;-80
2023/09/25 04:31:08;;;;;;;25.17;13.35;;;;;;;19.36;68.26;94105.28;5084892;28;20330;-80
2023/09/25 04:33:35;;;;;;;27.42;13.63;;;;;;;19.34;68.82;94107.56;5084660;28;20315;-80
2023/09/25 04:36:04;;;;;;;24.50;13.38;;;;;;;19.33;69.09;94103.28;5084585;28;20061;-80
2023/09/25 04:38:30;;;;;;;24.00;15.13;;;;;;;19.29;69.48;94109.78;5084700;28;20027;-80
2023/09/25 04:40:56;;;;;;;25.95;14.10;;;;;;;19.27;69.72;94110.16;5067028;28;20055;-80
2023/09/25 04:43:21;;;;;;;25.40;14.75;;;;;;;19.30;70.09;94116.78;5084767;28;20330;-80
2023/09/25 04:45:51;;;;;;;25.08;15.38;;;;;;;19.32;70.12;94111.78;5084597;28;20032;-80
2023/09/25 04:48:18;;;;;;;29.77;15.20;;;;;;;19.34;70.24;94114.91;5084324;28;20025;-80
2023/09/25 04:50:44;;;;;;;24.38;15.18;;;;;;;19.32;70.52;94117.19;5084648;28;20047;-80
2023/09/25 04:53:10;;;;;;;29.90;14.70;;;;;;;19.34;70.42;94123.00;5084450;28;20077;-80
2023/09/25 04:55:38;;;;;;;26.98;15.98;;;;;;;19.28;70.85;94110.94;5084186;28;20327;-80
2023/09/25 04:58:03;;;;;;;32.78;15.73;;;;;;;19.26;71.10;94116.72;5084006;28;20030;-80
2023/09/25 05:00:29;;;;;;;23.70;15.20;;;;;;;19.29;71.26;94110.56;5084118;28;20029;-80
2023/09/25 05:02:55;;;;;;;24.10;15.45;;;;;;;19.31;71.53;94118.31;5084254;28;20314;-80
2023/09/25 05:05:22;;;;;;;27.23;17.10;;;;;;;19.33;71.41;94111.41;5083685;28;20016;-80
2023/09/25 05:07:49;;;;;;;31.50;17.58;;;;;;;19.36;71.80;94112.63;5066305;28;20031;-80
2023/09/25 05:10:17;;;;;;;36.75;17.50;;;;;;;19.35;71.76;94111.81;5084002;28;20092;-80
2023/09/25 05:12:43;;;;;;;33.75;17.42;;;;;;;19.35;71.89;94116.44;5083814;28;20016;-80
2023/09/25 05:15:10;;;;;;;26.08;17.48;;;;;;;19.36;72.29;94121.50;5083908;28;20047;-80
2023/09/25 05:17:37;;;;;;;37.13;18.10;;;;;;;19.38;72.12;94119.22;5083663;28;20043;-81
2023/09/25 05:20:15;;;;;;;28.00;19.63;;;;;;;19.44;72.35;94131.28;5083816;28;20017;-80
2023/09/25 05:22:49;;;;;;;36.22;17.27;;;;;;;19.50;72.36;94136.38;5083860;28;20357;-80
2023/09/25 05:25:16;;;;;;;32.08;17.23;;;;;;;19.54;72.33;94131.78;5083558;28;20058;-80
2023/09/25 05:27:46;;;;;;;31.25;18.75;;;;;;;19.59;72.01;94140.38;5083605;28;20099;-80
2023/09/25 05:30:12;;;;;;;39.22;18.63;;;;;;;19.64;71.85;94142.78;5083598;28;20029;-81
2023/09/25 05:32:44;;;;;;;33.75;17.88;;;;;;;19.73;71.89;94139.06;5083591;28;20337;-80
2023/09/25 05:35:10;;;;;;;30.58;18.55;;;;;;;19.75;71.85;94153.78;5083468;28;20024;-80
2023/09/25 05:37:36;;;;;;;37.80;17.45;;;;;;;19.74;71.44;94146.84;5083551;28;20028;-81
2023/09/25 05:40:04;;;;;;;24.95;16.40;;;;;;;19.71;71.63;94160.28;5083332;28;20030;-81
2023/09/25 05:42:30;;;;;;;27.60;15.40;;;;;;;19.72;71.30;94159.94;5083235;28;20024;-80
2023/09/25 05:44:55;;;;;;;27.15;15.52;;;;;;;19.75;71.54;94175.41;5065329;28;20016;-80
2023/09/25 05:47:21;;;;;;;34.17;15.18;;;;;;;19.77;71.63;94177.78;5083434;28;20207;-80
2023/09/25 05:49:47;;;;;;;26.48;14.27;;;;;;;19.76;71.41;94179.69;5083394;28;20204;-81
2023/09/25 05:52:13;;;;;;;30.50;13.48;;;;;;;19.75;71.31;94186.25;5083108;28;20020;-81
2023/09/25 05:54:38;;;;;;;27.45;13.60;;;;;;;19.74;71.06;94182.00;5083158;28;20047;-80
2023/09/25 05:57:06;;;;;;;34.78;14.98;;;;;;;19.72;71.58;94175.34;5065309;28;20103;-80
2023/09/25 05:59:34;;;;;;;30.92;14.82;;;;;;;19.74;71.99;94179.28;5083054;28;20062;-81
2023/09/25 06:02:00;;;;;;;25.30;13.60;;;;;;;19.77;71.65;94188.59;5083226;28;20330;-80
2023/09/25 06:04:25;;;;;;;23.92;14.00;;;;;;;19.79;72.08;94189.78;5082719;28;20020;-80
2023/09/25 06:06:51;;;;;;;22.90;12.88;;;;;;;19.83;71.66;94179.78;5083103;28;20016;-80
2023/09/25 06:09:16;;;;;;;18.15;13.15;;;;;;;19.87;71.70;94177.16;5082717;28;20311;-80
2023/09/25 06:11:42;;;;;;;21.88;13.35;;;;;;;19.91;71.83;94183.38;5082612;28;20098;-80
2023/09/25 06:14:09;;;;;;;24.50;13.90;;;;;;;20.00;71.55;94189.31;5082420;28;20170;-80
2023/09/25 06:16:36;;;;;;;26.00;13.85;;;;;;;20.13;71.25;94195.31;5082101;28;20024;-80
2023/09/25 06:19:03;;;;;;;24.95;14.50;;;;;;;20.24;70.49;94190.81;5082915;28;20222;-80
2023/09/25 06:21:29;;;;;;;23.38;13.77;;;;;;;20.31;70.46;94190.09;5082892;28;20048;-80
2023/09/25 06:23:55;;;;;;;19.27;13.77;;;;;;;20.29;70.27;94197.03;5082595;28;20031;-80
2023/09/25 06:26:20;;;;;;;20.63;14.20;;;;;;;20.31;70.05;94195.53;5082919;28;20099;-80
2023/09/25 06:28:46;;;;;;;24.42;13.88;;;;;;;20.30;69.93;94193.19;5082549;28;20020;-80
2023/09/25 06:31:13;;;;;;;18.60;12.82;;;;;;;20.30;70.68;94195.91;5082741;28;20257;-80
2023/09/25 06:33:38;;;;;;;24.92;12.50;;;;;;;20.32;70.57;94207.16;5082360;28;20062;-80
2023/09/25 06:36:04;;;;;;;25.65;11.75;;;;;;;20.39;70.21;94208.03;5082546;28;20091;-80
2023/09/25 06:38:29;;;;;;;23.25;12.25;;;;;;;20.44;69.94;94213.13;5082469;28;20074;-80
2023/09/25 06:40:55;;;;;;;25.63;12.38;;;;;;;20.44;69.66;94220.47;5082316;28;20031;-81
2023/09/25 06:43:21;;;;;;;24.42;12.40;;;;;;;20.55;70.01;94221.38;5064577;28;20044;-80
2023/09/25 06:45:46;;;;;;;19.35;11.82;;;;;;;20.62;70.18;94226.91;5064712;28;20420;-80
2023/09/25 06:48:12;;;;;;;23.70;12.35;;;;;;;20.72;69.42;94221.97;5064607;28;20024;-80
2023/09/25 06:50:37;;;;;;;29.17;13.45;;;;;;;20.78;69.27;94213.19;5082607;28;20016;-80
2023/09/25 06:53:03;;;;;;;32.15;14.52;;;;;;;20.87;69.08;94226.44;5082477;28;20023;-80
2023/09/25 06:55:29;;;;;;;32.45;14.20;;;;;;;21.01;68.63;94221.16;5082305;28;20091;-80
2023/09/25 06:57:54;;;;;;;25.17;15.52;;;;;;;21.11;68.32;94227.09;5064692;28;20028;-80
2023/09/25 07:00:20;;;;;;;23.58;14.73;;;;;;;21.26;66.86;94219.88;5081521;28;20362;-80
2023/09/25 07:02:46;;;;;;;26.17;14.68;;;;;;;21.34;65.97;94227.69;5082524;28;20024;-80
2023/09/25 07:05:11;;;;;;;31.70;16.02;;;;;;;21.42;66.07;94233.97;5082306;28;20033;-80
2023/09/25 07:07:37;;;;;;;30.23;14.20;;;;;;;21.55;65.87;94231.78;5082107;28;20028;-81
2023/09/25 07:10:06;;;;;;;21.55;12.45;;;;;;;21.64;65.65;94224.13;5082380;28;20020;-81
2023/09/25 07:12:33;;;;;;;21.25;13.60;;;;;;;21.69;65.49;94226.50;5081196;28;20017;-81
2023/09/25 07:15:00;;;;;;;22.88;12.82;;;;;;;21.81;64.27;94228.91;5064409;28;20032;-81
2023/09/25 07:17:26;;;;;;;21.85;12.45;;;;;;;21.90;63.37;94230.53;5082306;28;20027;-80
2023/09/25 07:19:52;;;;;;;21.83;13.32;;;;;;;22.03;62.96;94227.16;5082326;28;20092;-80
2023/09/25 07:22:22;;;;;;;19.88;12.90;;;;;;;22.17;62.74;94234.63;5082307;28;20146;-81
2023/09/25 07:24:48;;;;;;;25.52;14.02;;;;;;;22.20;61.79;94224.94;5082289;28;20028;-81
2023/09/25 07:27:14;;;;;;;23.63;12.80;;;;;;;22.25;60.88;94230.06;5082592;28;20024;-80
2023/09/25 07:29:44;;;;;;;29.17;14.85;;;;;;;22.28;60.85;94233.94;5085769;28;20417;-81
2023/09/25 07:32:10;;;;;;;18.90;13.20;;;;;;;22.43;60.02;94235.59;5085702;28;20223;-80
2023/09/25 07:34:36;;;;;;;35.42;13.93;;;;;;;22.55;59.88;94235.28;5085173;28;20021;-80
2023/09/25 07:37:05;;;;;;;23.85;13.10;;;;;;;22.63;58.43;94242.28;5085830;28;20024;-80
2023/09/25 07:39:40;;;;;;;36.83;14.05;;;;;;;22.72;57.26;94241.16;5085931;28;20017;-81
2023/09/25 07:42:06;;;;;;;25.20;13.00;;;;;;;22.77;55.67;94243.50;5085586;28;20024;-81
2023/09/25 07:44:33;;;;;;;18.02;10.95;;;;;;;22.68;55.22;94243.09;5085520;28;20039;-81
2023/09/25 07:47:06;;;;;;;23.02;12.00;;;;;;;22.64;54.90;94251.22;5085671;28;20023;-80
2023/09/25 07:49:44;;;;;;;20.42;12.10;;;;;;;22.66;55.04;94253.56;5085627;28;20091;-81
2023/09/25 07:52:15;;;;;;;17.13;10.70;;;;;;;22.49;55.77;94242.22;5085611;28;20249;-80
2023/09/25 07:54:51;;;;;;;20.50;12.60;;;;;;;22.49;56.72;94250.38;5085517;28;20120;-80
2023/09/25 07:57:19;;;;;;;22.33;11.80;;;;;;;22.50;56.88;94241.06;5085539;28;20601;-80
2023/09/25 07:59:45;;;;;;;21.02;11.98;;;;;;;22.48;56.64;94248.81;5085412;28;20016;-81
2023/09/25 08:02:20;;;;;;;21.17;11.25;;;;;;;22.44;56.79;94254.19;5067406;28;20093;-80
2023/09/25 08:04:48;;;;;;;19.77;10.82;;;;;;;22.48;56.72;94253.47;5085386;28;20238;-81
2023/09/25 08:07:14;;;;;;;16.08;9.38;;;;;;;22.51;55.74;94242.63;5084039;28;20024;-81
2023/09/25 08:09:39;;;;;;;18.77;10.02;;;;;;;22.52;55.51;94248.81;5085300;28;20044;-81
2023/09/25 08:12:05;;;;;;;15.30;9.02;;;;;;;22.54;55.38;94244.56;5085197;28;20027;-80
2023/09/25 08:14:31;;;;;;;16.98;9.65;;;;;;;22.57;55.78;94243.03;5085123;28;20319;-81
2023/09/25 08:16:57;;;;;;;23.30;11.02;;;;;;;22.63;55.24;94239.59;5084781;28;20027;-81
2023/09/25 08:19:23;;;;;;;15.90;9.75;;;;;;;22.67;54.66;94233.38;5067151;28;20017;-80
2023/09/25 08:21:53;;;;;;;16.33;9.55;;;;;;;22.72;53.69;94230.31;5085114;28;20184;-81
2023/09/25 08:24:19;;;;;;;16.35;8.10;;;;;;;22.71;53.10;94236.88;5085093;28;20227;-81
2023/09/25 08:26:46;;;;;;;13.23;7.88;;;;;;;22.64;52.78;94238.41;5067067;28;20095;-81
2023/09/25 08:29:16;;;;;;;15.32;7.90;;;;;;;22.67;53.37;94239.56;5084753;28;20096;-81
2023/09/25 08:31:43;;;;;;;12.50;7.13;;;;;;;22.69;53.11;94239.97;5084865;28;20067;-81
2023/09/25 08:34:09;;;;;;;10.75;7.35;;;;;;;22.71;52.73;94239.59;5084828;28;20066;-81
2023/09/25 08:36:34;;;;;;;11.75;6.57;;;;;;;22.76;52.44;94241.97;5066764;28;20032;-81
2023/09/25 08:39:00;;;;;;;10.35;6.05;;;;;;;22.78;51.78;94234.22;5066098;28;20027;-81
2023/09/25 08:41:27;;;;;;;17.45;6.13;;;;;;;22.89;51.00;94240.47;5084509;28;20048;-81
2023/09/25 08:43:53;;;;;;;9.15;5.07;;;;;;;22.95;50.29;94244.34;5084531;28;20104;-81
2023/09/25 08:46:21;;;;;;;12.13;6.78;;;;;;;23.01;49.83;94237.44;5083548;28;20024;-81
2023/09/25 08:48:47;;;;;;;11.70;6.22;;;;;;;23.06;49.58;94232.78;5066790;28;20249;-81
2023/09/25 08:51:14;;;;;;;8.07;5.18;;;;;;;23.10;49.36;94233.56;5084433;28;20031;-81
2023/09/25 08:53:39;;;;;;;9.05;5.72;;;;;;;23.11;49.94;94235.13;5084434;28;20264;-81
2023/09/25 08:56:06;;;;;;;11.35;4.93;;;;;;;23.14;50.06;94240.59;5084343;28;20027;-81
2023/09/25 08:58:33;;;;;;;10.10;4.88;;;;;;;23.20;49.09;94243.69;5084248;28;20016;-81
2023/09/25 09:00:58;;;;;;;10.45;5.32;;;;;;;23.27;48.81;94232.06;5084241;28;20024;-81
2023/09/25 09:03:27;;;;;;;7.70;4.13;;;;;;;23.38;48.68;94232.88;5084288;28;20017;-81
2023/09/25 09:05:53;;;;;;;8.88;5.00;;;;;;;23.45;48.54;94235.59;5084239;28;20028;-81
2023/09/25 09:08:19;;;;;;;11.45;4.40;;;;;;;23.52;48.37;94238.31;5084303;28;20020;-81
2023/09/25 09:10:44;;;;;;;8.38;4.72;;;;;;;23.59;48.17;94232.91;5084045;28;20227;-81
2023/09/25 09:13:13;;;;;;;10.02;4.32;;;;;;;23.69;47.74;94225.13;5083891;28;20321;-81
2023/09/25 09:15:39;;;;;;;6.40;4.00;;;;;;;23.69;47.69;94230.56;5083872;28;20036;-81
2023/09/25 09:18:25;;;;;;;7.88;4.28;;;;;;;23.64;46.95;94229.03;5083723;28;20023;-81
2023/09/25 09:20:51;;;;;;;6.10;3.90;;;;;;;23.62;46.82;94231.34;5083680;28;20224;-81
2023/09/25 09:23:17;;;;;;;6.07;3.85;;;;;;;23.50;47.67;94229.00;5083817;28;20020;-81
2023/09/25 09:25:49;;;;;;;12.05;3.72;;;;;;;23.50;47.97;94237.94;5082419;28;20235;-81
2023/09/25 09:28:15;;;;;;;10.52;3.67;;;;;;;23.49;47.44;94241.84;5083478;28;20090;-81
2023/09/25 09:30:41;;;;;;;10.52;3.55;;;;;;;23.48;47.41;94232.09;5065644;28;20472;-81
2023/09/25 09:33:08;;;;;;;9.07;3.58;;;;;;;23.51;48.10;94235.97;5083603;28;20254;-81
2023/09/25 09:35:34;;;;;;;10.13;3.17;;;;;;;23.54;47.47;94233.28;5083666;28;20065;-81
2023/09/25 09:38:02;;;;;;;6.18;3.75;;;;;;;23.59;47.47;94232.91;5083480;28;20016;-81
2023/09/25 09:40:28;;;;;;;5.28;3.67;;;;;;;23.67;47.45;94238.34;5065771;28;20047;-82
2023/09/25 09:42:54;;;;;;;7.13;3.70;;;;;;;23.77;47.40;94243.03;5083402;28;20330;-81
2023/09/25 09:45:22;;;;;;;5.47;3.10;;;;;;;23.82;46.74;94235.28;5065602;28;20020;-81
2023/09/25 09:47:50;;;;;;;8.43;3.80;;;;;;;23.86;47.49;94235.28;5083526;28;20016;-81
2023/09/25 09:50:25;;;;;;;8.35;3.00;;;;;;;23.99;47.71;94231.00;5083120;28;20024;-81
2023/09/25 09:52:50;;;;;;;8.07;3.22;;;;;;;24.03;46.53;94229.03;5083333;28;20073;-81
2023/09/25 09:55:18;;;;;;;13.27;3.38;;;;;;;24.11;46.00;94231.78;5083521;28;20323;-81
2023/09/25 09:57:45;;;;;;;8.55;3.38;;;;;;;24.28;45.71;94235.63;5083056;28;20030;-81
2023/09/25 10:00:13;;;;;;;8.52;2.70;;;;;;;24.22;44.54;94233.31;5083023;28;20351;-81
2023/09/25 10:02:40;;;;;;;11.05;4.10;;;;;;;24.25;45.43;94233.72;5082958;28;20024;-81
2023/09/25 10:05:10;;;;;;;9.40;3.85;;;;;;;24.21;46.15;94230.97;5083172;28;20051;-81
2023/09/25 10:08:06;;;;;;;9.75;3.35;;;;;;;24.27;46.02;94232.13;5082936;28;20027;-81
2023/09/25 10:10:32;;;;;;;5.30;3.60;;;;;;;24.35;45.65;94241.09;5083247;28;20078;-81
2023/09/25 10:12:58;;;;;;;9.13;2.70;;;;;;;24.41;44.85;94234.84;5065046;28;20257;-81
2023/09/25 10:15:28;;;;;;;6.57;2.80;;;;;;;24.42;44.57;94230.16;5082811;28;20020;-81
2023/09/25 10:17:54;;;;;;;14.32;3.50;;;;;;;24.46;45.30;94235.59;5082808;28;20020;-81
2023/09/25 10:20:46;;;;;;;8.40;3.50;;;;;;;24.56;45.16;94230.16;5082965;28;20021;-81
2023/09/25 10:23:24;;;;;;;7.38;3.10;;;;;;;24.61;44.54;94218.88;5078643;28;20048;-82
2023/09/25 10:26:02;;;;;;;10.25;3.60;;;;;;;24.65;44.90;94218.88;5064876;28;20016;-82
2023/09/25 10:28:32;;;;;;;8.00;3.50;;;;;;;24.70;44.10;94217.66;5082739;28;20319;-82
2023/09/25 10:31:02;;;;;;;15.63;4.47;;;;;;;24.84;44.45;94214.88;5064958;28;20284;-81
2023/09/25 10:33:29;;;;;;;13.10;3.97;;;;;;;24.96;44.31;94224.59;5082846;28;20218;-82
2023/09/25 10:36:00;;;;;;;11.15;2.95;;;;;;;25.01;44.04;94226.88;5082686;28;20024;-81
2023/09/25 10:38:28;;;;;;;11.63;3.08;;;;;;;25.09;43.85;94216.72;5082414;28;20337;-81
2023/09/25 10:41:00;;;;;;;8.93;3.83;;;;;;;25.11;43.32;94220.59;5082693;28;20040;-81
2023/09/25 10:43:25;;;;;;;11.23;3.90;;;;;;;25.17;43.64;94220.97;5082706;28;20047;-81
2023/09/25 10:45:53;;;;;;;5.78;2.63;;;;;;;25.27;43.28;94222.91;5064962;28;20020;-81
2023/09/25 10:48:20;;;;;;;6.07;3.03;;;;;;;25.35;42.69;94227.13;5082333;28;20342;-81
2023/09/25 10:50:46;;;;;;;7.47;2.80;;;;;;;25.33;42.05;94221.28;5082329;28;20024;-81
2023/09/25 10:53:13;;;;;;;5.90;3.13;;;;;;;25.31;41.21;94225.59;5064627;28;20060;-81
2023/09/25 10:55:39;;;;;;;4.57;2.92;;;;;;;25.28;41.36;94221.72;5081451;28;20256;-81
2023/09/25 10:58:07;;;;;;;9.82;3.55;;;;;;;25.31;41.73;94226.38;5082357;28;20024;-81
2023/09/25 11:00:36;;;;;;;7.95;3.28;;;;;;;25.19;42.07;94229.53;5064692;28;20024;-81
2023/09/25 11:03:03;;;;;;;7.35;2.85;;;;;;;25.19;42.20;94222.13;5084093;28;20024;-81
2023/09/25 11:05:32;;;;;;;10.85;3.58;;;;;;;25.20;41.98;94214.72;5068593;28;20035;-81
2023/09/25 11:07:58;;;;;;;11.55;2.80;;;;;;;25.16;42.03;94219.44;5086513;28;20222;-81
2023/09/25 11:10:28;;;;;;;11.85;3.47;;;;;;;25.17;42.14;94220.97;5086406;28;20025;-80
2023/09/25 11:12:54;;;;;;;11.18;2.83;;;;;;;25.22;42.66;94223.31;5086132;28;20265;-81
2023/09/25 11:15:20;;;;;;;7.25;2.90;;;;;;;25.32;42.83;94219.75;5086353;28;20028;-81
2023/09/25 11:17:46;;;;;;;8.77;3.08;;;;;;;25.48;42.53;94223.94;5086242;28;20183;-81
2023/09/25 11:20:19;;;;;;;6.20;2.50;;;;;;;25.55;41.92;94213.75;5086038;28;20032;-80
2023/09/25 11:22:47;;;;;;;9.10;3.03;;;;;;;25.63;41.29;94219.94;5086283;28;20238;-80